Aviation Digital Data Service (ADDS)

Output produced by METARs form (1312 UTC 08 May 2021)
found at http://aviationweather.gov/metar/data/
 
KDFW 081253Z 18016G22KT 10SM BKN013 BKN300 19/17 A2988 RMK AO2 SLP109 T01940167
KDFW 081256Z 0813/0918 19015KT P6SM SCT015 
     TEMPO 0813/0817 BKN015 
     FM081800 18022G32KT P6SM SCT040 
     FM090900 19018G28KT P6SM BKN015 
     FM091600 22015G25KT P6SM BKN015